sensor_id;sensor_type;location;lat;lon;timestamp;temperature;humidity
79467;SHT30;68933;49.726;9.226;2023-08-21T00:01:24;24.2;68
79467;SHT30;68933;49.726;9.226;2023-08-21T00:03:36;24.1;66
79467;SHT30;68933;49.726;9.226;2023-08-21T00:05:49;24.1;66
79467;SHT30;68933;49.726;9.226;2023-08-21T00:08:03;24.1;66
79467;SHT30;68933;49.726;9.226;2023-08-21T00:10:16;24;66
79467;SHT30;68933;49.726;9.226;2023-08-21T00:12:29;24;66
79467;SHT30;68933;49.726;9.226;2023-08-21T00:14:41;24;66
79467;SHT30;68933;49.726;9.226;2023-08-21T00:16:55;24;66
79467;SHT30;68933;49.726;9.226;2023-08-21T00:19:07;24;68
79467;SHT30;68933;49.726;9.226;2023-08-21T00:21:21;24;68
79467;SHT30;68933;49.726;9.226;2023-08-21T00:23:33;24;68
79467;SHT30;68933;49.726;9.226;2023-08-21T00:25:47;23.9;68
79467;SHT30;68933;49.726;9.226;2023-08-21T00:27:59;23.9;68
79467;SHT30;68933;49.726;9.226;2023-08-21T00:30:13;23.9;68
79467;SHT30;68933;49.726;9.226;2023-08-21T00:32:26;23.9;68
79467;SHT30;68933;49.726;9.226;2023-08-21T00:34:38;23.8;68
79467;SHT30;68933;49.726;9.226;2023-08-21T00:36:51;23.8;68
79467;SHT30;68933;49.726;9.226;2023-08-21T00:39:04;23.7;68
79467;SHT30;68933;49.726;9.226;2023-08-21T00:41:17;23.7;68
79467;SHT30;68933;49.726;9.226;2023-08-21T00:43:30;23.7;68
79467;SHT30;68933;49.726;9.226;2023-08-21T00:45:44;23.7;68
79467;SHT30;68933;49.726;9.226;2023-08-21T00:47:56;23.7;68
79467;SHT30;68933;49.726;9.226;2023-08-21T00:50:10;23.6;68
79467;SHT30;68933;49.726;9.226;2023-08-21T00:52:22;23.6;68
79467;SHT30;68933;49.726;9.226;2023-08-21T00:54:35;23.6;69
79467;SHT30;68933;49.726;9.226;2023-08-21T00:56:48;23.6;69
79467;SHT30;68933;49.726;9.226;2023-08-21T00:59:01;23.6;69
79467;SHT30;68933;49.726;9.226;2023-08-21T01:01:14;23.6;69
79467;SHT30;68933;49.726;9.226;2023-08-21T01:03:28;23.6;69
79467;SHT30;68933;49.726;9.226;2023-08-21T01:05:40;23.6;69
79467;SHT30;68933;49.726;9.226;2023-08-21T01:07:56;23.5;69
79467;SHT30;68933;49.726;9.226;2023-08-21T01:10:07;23.5;69
79467;SHT30;68933;49.726;9.226;2023-08-21T01:12:22;23.5;69
79467;SHT30;68933;49.726;9.226;2023-08-21T01:14:33;23.5;69
79467;SHT30;68933;49.726;9.226;2023-08-21T01:16:45;23.5;69
79467;SHT30;68933;49.726;9.226;2023-08-21T01:18:59;23.4;69
79467;SHT30;68933;49.726;9.226;2023-08-21T01:21:11;23.4;69
79467;SHT30;68933;49.726;9.226;2023-08-21T01:23:27;23.4;69
79467;SHT30;68933;49.726;9.226;2023-08-21T01:25:37;23.4;69
79467;SHT30;68933;49.726;9.226;2023-08-21T01:27:50;23.3;69
79467;SHT30;68933;49.726;9.226;2023-08-21T01:30:04;23.3;69
79467;SHT30;68933;49.726;9.226;2023-08-21T01:32:20;23.3;69
79467;SHT30;68933;49.726;9.226;2023-08-21T01:34:29;23.3;70
79467;SHT30;68933;49.726;9.226;2023-08-21T01:36:43;23.3;70
79467;SHT30;68933;49.726;9.226;2023-08-21T01:38:56;23.2;69
79467;SHT30;68933;49.726;9.226;2023-08-21T01:41:08;23.2;69
79467;SHT30;68933;49.726;9.226;2023-08-21T01:43:21;23;69
79467;SHT30;68933;49.726;9.226;2023-08-21T01:45:34;23;69
79467;SHT30;68933;49.726;9.226;2023-08-21T01:47:47;23;69
79467;SHT30;68933;49.726;9.226;2023-08-21T01:50:00;23;69
79467;SHT30;68933;49.726;9.226;2023-08-21T01:52:13;23;69
79467;SHT30;68933;49.726;9.226;2023-08-21T01:54:26;22.8;70
79467;SHT30;68933;49.726;9.226;2023-08-21T01:56:39;22.8;70
79467;SHT30;68933;49.726;9.226;2023-08-21T01:58:52;22.8;70
79467;SHT30;68933;49.726;9.226;2023-08-21T02:01:05;22.8;70
79467;SHT30;68933;49.726;9.226;2023-08-21T02:03:19;22.8;70
79467;SHT30;68933;49.726;9.226;2023-08-21T02:05:36;22.8;70
79467;SHT30;68933;49.726;9.226;2023-08-21T02:07:44;22.8;70
79467;SHT30;68933;49.726;9.226;2023-08-21T02:09:58;22.6;70
79467;SHT30;68933;49.726;9.226;2023-08-21T02:12:10;22.6;70
79467;SHT30;68933;49.726;9.226;2023-08-21T02:14:23;22.5;70
79467;SHT30;68933;49.726;9.226;2023-08-21T02:16:37;22.5;70
79467;SHT30;68933;49.726;9.226;2023-08-21T02:18:49;22.5;72
79467;SHT30;68933;49.726;9.226;2023-08-21T02:21:02;22.5;72
79467;SHT30;68933;49.726;9.226;2023-08-21T02:23:16;22.5;72
79467;SHT30;68933;49.726;9.226;2023-08-21T02:25:29;22.4;72
79467;SHT30;68933;49.726;9.226;2023-08-21T02:27:41;22.4;72
79467;SHT30;68933;49.726;9.226;2023-08-21T02:29:54;22.3;72
79467;SHT30;68933;49.726;9.226;2023-08-21T02:32:07;22.3;72
79467;SHT30;68933;49.726;9.226;2023-08-21T02:34:20;22.3;72
79467;SHT30;68933;49.726;9.226;2023-08-21T02:36:33;22.3;72
79467;SHT30;68933;49.726;9.226;2023-08-21T02:38:46;22.3;73
79467;SHT30;68933;49.726;9.226;2023-08-21T02:41:00;22.3;73
79467;SHT30;68933;49.726;9.226;2023-08-21T02:43:12;22.3;73
79467;SHT30;68933;49.726;9.226;2023-08-21T02:45:25;22.3;73
79467;SHT30;68933;49.726;9.226;2023-08-21T02:47:39;22.3;73
79467;SHT30;68933;49.726;9.226;2023-08-21T02:49:51;22.3;72
79467;SHT30;68933;49.726;9.226;2023-08-21T02:52:05;22.3;72
79467;SHT30;68933;49.726;9.226;2023-08-21T02:54:17;22.3;72
79467;SHT30;68933;49.726;9.226;2023-08-21T02:56:31;22.3;72
79467;SHT30;68933;49.726;9.226;2023-08-21T02:58:43;22.3;72
79467;SHT30;68933;49.726;9.226;2023-08-21T03:00:57;22.3;72
79467;SHT30;68933;49.726;9.226;2023-08-21T03:03:09;22.3;72
79467;SHT30;68933;49.726;9.226;2023-08-21T03:05:22;22.3;72
79467;SHT30;68933;49.726;9.226;2023-08-21T03:07:35;22.3;72
79467;SHT30;68933;49.726;9.226;2023-08-21T03:09:49;22.3;72
79467;SHT30;68933;49.726;9.226;2023-08-21T03:12:02;22.3;72
79467;SHT30;68933;49.726;9.226;2023-08-21T03:14:14;22.3;72
79467;SHT30;68933;49.726;9.226;2023-08-21T03:16:27;22.3;72
79467;SHT30;68933;49.726;9.226;2023-08-21T03:18:53;22.3;72
79467;SHT30;68933;49.726;9.226;2023-08-21T03:20:53;22.3;72
79467;SHT30;68933;49.726;9.226;2023-08-21T03:23:06;22.3;72
79467;SHT30;68933;49.726;9.226;2023-08-21T03:25:19;22.3;72
79467;SHT30;68933;49.726;9.226;2023-08-21T03:27:33;22.3;72
79467;SHT30;68933;49.726;9.226;2023-08-21T03:29:45;22.3;72
79467;SHT30;68933;49.726;9.226;2023-08-21T03:31:58;22.3;72
79467;SHT30;68933;49.726;9.226;2023-08-21T03:34:11;22.2;72
79467;SHT30;68933;49.726;9.226;2023-08-21T03:36:24;22.2;72
79467;SHT30;68933;49.726;9.226;2023-08-21T03:38:37;22.1;72
79467;SHT30;68933;49.726;9.226;2023-08-21T03:40:50;22.1;72
79467;SHT30;68933;49.726;9.226;2023-08-21T03:43:04;22.1;72
79467;SHT30;68933;49.726;9.226;2023-08-21T03:45:16;22.1;72
79467;SHT30;68933;49.726;9.226;2023-08-21T03:47:30;22.1;72
79467;SHT30;68933;49.726;9.226;2023-08-21T03:49:42;22;72
79467;SHT30;68933;49.726;9.226;2023-08-21T03:51:55;22;72
79467;SHT30;68933;49.726;9.226;2023-08-21T03:54:08;22;72
79467;SHT30;68933;49.726;9.226;2023-08-21T03:56:21;21.9;72
79467;SHT30;68933;49.726;9.226;2023-08-21T03:58:35;21.9;72
79467;SHT30;68933;49.726;9.226;2023-08-21T04:00:47;21.9;72
79467;SHT30;68933;49.726;9.226;2023-08-21T04:03:00;21.9;72
79467;SHT30;68933;49.726;9.226;2023-08-21T04:05:14;21.9;72
79467;SHT30;68933;49.726;9.226;2023-08-21T04:07:26;21.9;72
79467;SHT30;68933;49.726;9.226;2023-08-21T04:09:39;21.9;72
79467;SHT30;68933;49.726;9.226;2023-08-21T04:11:52;21.9;73
79467;SHT30;68933;49.726;9.226;2023-08-21T04:14:06;21.9;73
79467;SHT30;68933;49.726;9.226;2023-08-21T04:16:18;21.8;73
79467;SHT30;68933;49.726;9.226;2023-08-21T04:18:31;21.8;73
79467;SHT30;68933;49.726;9.226;2023-08-21T04:20:44;21.8;73
79467;SHT30;68933;49.726;9.226;2023-08-21T04:22:57;21.8;73
79467;SHT30;68933;49.726;9.226;2023-08-21T04:25:10;21.8;73
79467;SHT30;68933;49.726;9.226;2023-08-21T04:27:23;21.8;73
79467;SHT30;68933;49.726;9.226;2023-08-21T04:29:37;21.8;73
79467;SHT30;68933;49.726;9.226;2023-08-21T04:31:49;21.8;73
79467;SHT30;68933;49.726;9.226;2023-08-21T04:34:02;21.8;73
79467;SHT30;68933;49.726;9.226;2023-08-21T04:36:16;21.8;73
79467;SHT30;68933;49.726;9.226;2023-08-21T04:38:28;21.8;73
79467;SHT30;68933;49.726;9.226;2023-08-21T04:40:41;21.8;73
79467;SHT30;68933;49.726;9.226;2023-08-21T04:42:54;21.8;73
79467;SHT30;68933;49.726;9.226;2023-08-21T04:45:08;21.8;73
79467;SHT30;68933;49.726;9.226;2023-08-21T04:47:21;21.7;73
79467;SHT30;68933;49.726;9.226;2023-08-21T04:49:33;21.7;73
79467;SHT30;68933;49.726;9.226;2023-08-21T04:51:46;21.7;73
79467;SHT30;68933;49.726;9.226;2023-08-21T04:53:59;21.7;73
79467;SHT30;68933;49.726;9.226;2023-08-21T04:56:12;21.7;73
79467;SHT30;68933;49.726;9.226;2023-08-21T04:58:26;21.7;73
79467;SHT30;68933;49.726;9.226;2023-08-21T05:00:38;21.7;73
79467;SHT30;68933;49.726;9.226;2023-08-21T05:02:51;21.7;73
79467;SHT30;68933;49.726;9.226;2023-08-21T05:05:05;21.7;73
79467;SHT30;68933;49.726;9.226;2023-08-21T05:07:17;21.6;73
79467;SHT30;68933;49.726;9.226;2023-08-21T05:09:30;21.6;73
79467;SHT30;68933;49.726;9.226;2023-08-21T05:11:43;21.6;73
79467;SHT30;68933;49.726;9.226;2023-08-21T05:13:56;21.6;73
79467;SHT30;68933;49.726;9.226;2023-08-21T05:16:10;21.6;73
79467;SHT30;68933;49.726;9.226;2023-08-21T05:18:23;21.6;74
79467;SHT30;68933;49.726;9.226;2023-08-21T05:20:35;21.6;74
79467;SHT30;68933;49.726;9.226;2023-08-21T05:22:49;21.6;74
79467;SHT30;68933;49.726;9.226;2023-08-21T05:25:02;21.6;74
79467;SHT30;68933;49.726;9.226;2023-08-21T05:27:14;21.6;73
79467;SHT30;68933;49.726;9.226;2023-08-21T05:29:28;21.6;73
79467;SHT30;68933;49.726;9.226;2023-08-21T05:31:41;21.6;73
79467;SHT30;68933;49.726;9.226;2023-08-21T05:33:54;21.5;73
79467;SHT30;68933;49.726;9.226;2023-08-21T05:36:07;21.5;73
79467;SHT30;68933;49.726;9.226;2023-08-21T05:38:20;21.5;74
79467;SHT30;68933;49.726;9.226;2023-08-21T05:40:32;21.5;74
79467;SHT30;68933;49.726;9.226;2023-08-21T05:42:45;21.4;74
79467;SHT30;68933;49.726;9.226;2023-08-21T05:44:59;21.4;74
79467;SHT30;68933;49.726;9.226;2023-08-21T05:47:12;21.5;74
79467;SHT30;68933;49.726;9.226;2023-08-21T05:49:24;21.5;74
79467;SHT30;68933;49.726;9.226;2023-08-21T05:51:37;21.5;74
79467;SHT30;68933;49.726;9.226;2023-08-21T05:53:51;21.6;74
79467;SHT30;68933;49.726;9.226;2023-08-21T05:56:03;21.6;74
79467;SHT30;68933;49.726;9.226;2023-08-21T05:58:16;21.6;74
79467;SHT30;68933;49.726;9.226;2023-08-21T06:00:30;21.6;74
79467;SHT30;68933;49.726;9.226;2023-08-21T06:02:43;21.7;74
79467;SHT30;68933;49.726;9.226;2023-08-21T06:04:55;21.7;74
79467;SHT30;68933;49.726;9.226;2023-08-21T06:07:09;21.8;74
79467;SHT30;68933;49.726;9.226;2023-08-21T06:09:22;21.8;74
79467;SHT30;68933;49.726;9.226;2023-08-21T06:11:34;21.9;74
79467;SHT30;68933;49.726;9.226;2023-08-21T06:13:47;21.9;74
79467;SHT30;68933;49.726;9.226;2023-08-21T06:16:01;22;73
79467;SHT30;68933;49.726;9.226;2023-08-21T06:18:14;22;73
79467;SHT30;68933;49.726;9.226;2023-08-21T06:20:26;22;73
79467;SHT30;68933;49.726;9.226;2023-08-21T06:22:39;22.1;73
79467;SHT30;68933;49.726;9.226;2023-08-21T06:24:52;22.1;73
79467;SHT30;68933;49.726;9.226;2023-08-21T06:27:05;22.1;73
79467;SHT30;68933;49.726;9.226;2023-08-21T06:29:18;22.3;73
79467;SHT30;68933;49.726;9.226;2023-08-21T06:31:31;22.3;73
79467;SHT30;68933;49.726;9.226;2023-08-21T06:33:45;22.4;73
79467;SHT30;68933;49.726;9.226;2023-08-21T06:35:57;22.4;73
79467;SHT30;68933;49.726;9.226;2023-08-21T06:38:10;22.6;73
79467;SHT30;68933;49.726;9.226;2023-08-21T06:40:23;22.6;73
79467;SHT30;68933;49.726;9.226;2023-08-21T06:42:36;22.6;73
79467;SHT30;68933;49.726;9.226;2023-08-21T06:44:49;22.8;72
79467;SHT30;68933;49.726;9.226;2023-08-21T06:47:03;22.8;72
79467;SHT30;68933;49.726;9.226;2023-08-21T06:49:16;22.9;72
79467;SHT30;68933;49.726;9.226;2023-08-21T06:51:28;22.9;72
79467;SHT30;68933;49.726;9.226;2023-08-21T06:53:41;22.9;72
79467;SHT30;68933;49.726;9.226;2023-08-21T06:55:54;23;72
79467;SHT30;68933;49.726;9.226;2023-08-21T06:58:07;23;72
79467;SHT30;68933;49.726;9.226;2023-08-21T07:00:20;23.2;72
79467;SHT30;68933;49.726;9.226;2023-08-21T07:02:34;23.2;72
79467;SHT30;68933;49.726;9.226;2023-08-21T07:04:47;23.3;72
79467;SHT30;68933;49.726;9.226;2023-08-21T07:06:59;23.3;72
79467;SHT30;68933;49.726;9.226;2023-08-21T07:09:13;23.3;72
79467;SHT30;68933;49.726;9.226;2023-08-21T07:11:25;23.6;70
79467;SHT30;68933;49.726;9.226;2023-08-21T07:13:39;23.6;70
79467;SHT30;68933;49.726;9.226;2023-08-21T07:15:52;23.8;70
79467;SHT30;68933;49.726;9.226;2023-08-21T07:18:05;23.8;70
79467;SHT30;68933;49.726;9.226;2023-08-21T07:20:18;24;70
79467;SHT30;68933;49.726;9.226;2023-08-21T07:22:30;24;70
79467;SHT30;68933;49.726;9.226;2023-08-21T07:24:43;24;70
79467;SHT30;68933;49.726;9.226;2023-08-21T07:26:56;24.1;69
79467;SHT30;68933;49.726;9.226;2023-08-21T07:29:09;24.1;69
79467;SHT30;68933;49.726;9.226;2023-08-21T07:31:23;24.4;69
79467;SHT30;68933;49.726;9.226;2023-08-21T07:33:35;24.4;69
79467;SHT30;68933;49.726;9.226;2023-08-21T07:35:56;24.4;69
79467;SHT30;68933;49.726;9.226;2023-08-21T07:38:02;24.6;69
79467;SHT30;68933;49.726;9.226;2023-08-21T07:40:14;24.6;69
79467;SHT30;68933;49.726;9.226;2023-08-21T07:42:27;24.9;68
79467;SHT30;68933;49.726;9.226;2023-08-21T07:44:40;24.9;68
79467;SHT30;68933;49.726;9.226;2023-08-21T07:46:53;25.1;68
79467;SHT30;68933;49.726;9.226;2023-08-21T07:49:06;25.1;68
79467;SHT30;68933;49.726;9.226;2023-08-21T07:51:20;25.4;67
79467;SHT30;68933;49.726;9.226;2023-08-21T07:53:32;25.4;67
79467;SHT30;68933;49.726;9.226;2023-08-21T07:55:45;25.4;67
79467;SHT30;68933;49.726;9.226;2023-08-21T07:57:58;25.5;66
79467;SHT30;68933;49.726;9.226;2023-08-21T08:00:12;25.5;66
79467;SHT30;68933;49.726;9.226;2023-08-21T08:02:24;25.8;66
79467;SHT30;68933;49.726;9.226;2023-08-21T08:04:38;25.8;66
79467;SHT30;68933;49.726;9.226;2023-08-21T08:06:51;26.2;66
79467;SHT30;68933;49.726;9.226;2023-08-21T08:09:03;26.2;66
79467;SHT30;68933;49.726;9.226;2023-08-21T08:11:16;26.4;65
79467;SHT30;68933;49.726;9.226;2023-08-21T08:13:29;26.4;65
79467;SHT30;68933;49.726;9.226;2023-08-21T08:15:42;26.4;65
79467;SHT30;68933;49.726;9.226;2023-08-21T08:17:56;26.8;63
79467;SHT30;68933;49.726;9.226;2023-08-21T08:20:09;26.8;63
79467;SHT30;68933;49.726;9.226;2023-08-21T08:22:22;27.1;63
79467;SHT30;68933;49.726;9.226;2023-08-21T08:24:34;27.1;63
79467;SHT30;68933;49.726;9.226;2023-08-21T08:26:47;27.3;62
79467;SHT30;68933;49.726;9.226;2023-08-21T08:29:00;27.3;62
79467;SHT30;68933;49.726;9.226;2023-08-21T08:31:14;27.3;62
79467;SHT30;68933;49.726;9.226;2023-08-21T08:33:26;27.6;62
79467;SHT30;68933;49.726;9.226;2023-08-21T08:35:39;27.6;62
79467;SHT30;68933;49.726;9.226;2023-08-21T08:37:53;27.9;62
79467;SHT30;68933;49.726;9.226;2023-08-21T08:40:06;27.9;62
79467;SHT30;68933;49.726;9.226;2023-08-21T08:42:18;28.2;61
79467;SHT30;68933;49.726;9.226;2023-08-21T08:44:32;28.2;61
79467;SHT30;68933;49.726;9.226;2023-08-21T08:46:44;28.6;61
79467;SHT30;68933;49.726;9.226;2023-08-21T08:48:58;28.6;61
79467;SHT30;68933;49.726;9.226;2023-08-21T08:51:11;28.6;61
79467;SHT30;68933;49.726;9.226;2023-08-21T08:53:24;29;59
79467;SHT30;68933;49.726;9.226;2023-08-21T08:55:36;29;59
79467;SHT30;68933;49.726;9.226;2023-08-21T08:57:50;29.2;59
79467;SHT30;68933;49.726;9.226;2023-08-21T09:00:03;29.2;59
79467;SHT30;68933;49.726;9.226;2023-08-21T09:02:16;29.6;58
79467;SHT30;68933;49.726;9.226;2023-08-21T09:04:28;29.6;58
79467;SHT30;68933;49.726;9.226;2023-08-21T09:06:41;30;58
79467;SHT30;68933;49.726;9.226;2023-08-21T09:08:55;30;58
79467;SHT30;68933;49.726;9.226;2023-08-21T09:11:07;30.2;57
79467;SHT30;68933;49.726;9.226;2023-08-21T09:13:21;30.2;57
79467;SHT30;68933;49.726;9.226;2023-08-21T09:15:33;30.2;57
79467;SHT30;68933;49.726;9.226;2023-08-21T09:17:52;30.6;57
79467;SHT30;68933;49.726;9.226;2023-08-21T09:20:02;30.6;57
79467;SHT30;68933;49.726;9.226;2023-08-21T09:22:14;30.7;55
79467;SHT30;68933;49.726;9.226;2023-08-21T09:24:26;30.7;55
79467;SHT30;68933;49.726;9.226;2023-08-21T09:26:38;31;55
79467;SHT30;68933;49.726;9.226;2023-08-21T09:28:52;31;55
79467;SHT30;68933;49.726;9.226;2023-08-21T09:31:04;31.2;54
79467;SHT30;68933;49.726;9.226;2023-08-21T09:33:18;31.2;54
79467;SHT30;68933;49.726;9.226;2023-08-21T09:35:32;31.2;54
79467;SHT30;68933;49.726;9.226;2023-08-21T09:37:45;31.6;54
79467;SHT30;68933;49.726;9.226;2023-08-21T09:40:00;31.6;54
79467;SHT30;68933;49.726;9.226;2023-08-21T09:42:09;31.9;53
79467;SHT30;68933;49.726;9.226;2023-08-21T09:44:22;31.9;53
79467;SHT30;68933;49.726;9.226;2023-08-21T09:46:35;31.9;53
79467;SHT30;68933;49.726;9.226;2023-08-21T09:48:48;32.3;51
79467;SHT30;68933;49.726;9.226;2023-08-21T09:51:01;32.3;51
79467;SHT30;68933;49.726;9.226;2023-08-21T09:53:14;32.8;50
79467;SHT30;68933;49.726;9.226;2023-08-21T09:55:28;32.8;50
79467;SHT30;68933;49.726;9.226;2023-08-21T09:57:41;32.8;50
79467;SHT30;68933;49.726;9.226;2023-08-21T09:59:53;33.2;48
79467;SHT30;68933;49.726;9.226;2023-08-21T10:02:06;33.2;48
79467;SHT30;68933;49.726;9.226;2023-08-21T10:04:19;33.4;48
79467;SHT30;68933;49.726;9.226;2023-08-21T10:06:32;33.4;48
79467;SHT30;68933;49.726;9.226;2023-08-21T10:08:46;33.7;46
79467;SHT30;68933;49.726;9.226;2023-08-21T10:10:58;33.7;46
79467;SHT30;68933;49.726;9.226;2023-08-21T10:13:11;33.7;46
79467;SHT30;68933;49.726;9.226;2023-08-21T10:15:25;34;46
79467;SHT30;68933;49.726;9.226;2023-08-21T10:17:38;34;46
79467;SHT30;68933;49.726;9.226;2023-08-21T10:19:51;34;46
79467;SHT30;68933;49.726;9.226;2023-08-21T10:22:03;34.2;45
79467;SHT30;68933;49.726;9.226;2023-08-21T10:24:34;34.2;45
79467;SHT30;68933;49.726;9.226;2023-08-21T10:26:30;34.3;44
79467;SHT30;68933;49.726;9.226;2023-08-21T10:28:43;34.3;44
79467;SHT30;68933;49.726;9.226;2023-08-21T10:30:55;34.6;42
79467;SHT30;68933;49.726;9.226;2023-08-21T10:33:08;34.6;42
79467;SHT30;68933;49.726;9.226;2023-08-21T10:35:22;34.8;42
79467;SHT30;68933;49.726;9.226;2023-08-21T10:37:34;34.8;42
79467;SHT30;68933;49.726;9.226;2023-08-21T10:39:55;34.8;42
79467;SHT30;68933;49.726;9.226;2023-08-21T10:42:01;35;44
79467;SHT30;68933;49.726;9.226;2023-08-21T10:44:13;35;44
79467;SHT30;68933;49.726;9.226;2023-08-21T10:46:26;35.3;42
79467;SHT30;68933;49.726;9.226;2023-08-21T10:48:39;35.3;42
79467;SHT30;68933;49.726;9.226;2023-08-21T10:50:52;35.7;40
79467;SHT30;68933;49.726;9.226;2023-08-21T10:53:05;35.7;40
79467;SHT30;68933;49.726;9.226;2023-08-21T10:55:19;35.7;40
79467;SHT30;68933;49.726;9.226;2023-08-21T10:57:32;35.8;40
79467;SHT30;68933;49.726;9.226;2023-08-21T10:59:52;36;40
79467;SHT30;68933;49.726;9.226;2023-08-21T11:01:57;36.1;40
79467;SHT30;68933;49.726;9.226;2023-08-21T11:04:11;36.1;40
79467;SHT30;68933;49.726;9.226;2023-08-21T11:06:23;36.4;38
79467;SHT30;68933;49.726;9.226;2023-08-21T11:08:36;36.4;38
79467;SHT30;68933;49.726;9.226;2023-08-21T11:10:49;36.4;38
79467;SHT30;68933;49.726;9.226;2023-08-21T11:13:06;36.6;38
79467;SHT30;68933;49.726;9.226;2023-08-21T11:15:16;36.6;38
79467;SHT30;68933;49.726;9.226;2023-08-21T11:17:28;37;38
79467;SHT30;68933;49.726;9.226;2023-08-21T11:19:42;37;38
79467;SHT30;68933;49.726;9.226;2023-08-21T11:21:54;37;38
79467;SHT30;68933;49.726;9.226;2023-08-21T11:24:07;37;37
79467;SHT30;68933;49.726;9.226;2023-08-21T11:26:20;37;37
79467;SHT30;68933;49.726;9.226;2023-08-21T11:28:35;37.2;37
79467;SHT30;68933;49.726;9.226;2023-08-21T11:30:46;37.2;37
79467;SHT30;68933;49.726;9.226;2023-08-21T11:33:07;37.1;36
79467;SHT30;68933;49.726;9.226;2023-08-21T11:35:12;37.1;36
79467;SHT30;68933;49.726;9.226;2023-08-21T11:37:26;37.1;36
79467;SHT30;68933;49.726;9.226;2023-08-21T11:39:40;37.1;36
79467;SHT30;68933;49.726;9.226;2023-08-21T11:41:53;37.6;36
79467;SHT30;68933;49.726;9.226;2023-08-21T11:44:04;37.6;36
79467;SHT30;68933;49.726;9.226;2023-08-21T11:46:18;37.6;36
79467;SHT30;68933;49.726;9.226;2023-08-21T11:48:31;37.6;36
79467;SHT30;68933;49.726;9.226;2023-08-21T11:50:43;37.6;36
79467;SHT30;68933;49.726;9.226;2023-08-21T11:52:56;37.7;36
79467;SHT30;68933;49.726;9.226;2023-08-21T11:55:10;37.7;36
79467;SHT30;68933;49.726;9.226;2023-08-21T11:57:22;37.7;36
79467;SHT30;68933;49.726;9.226;2023-08-21T11:59:36;37.9;36
79467;SHT30;68933;49.726;9.226;2023-08-21T12:01:49;37.9;36
79467;SHT30;68933;49.726;9.226;2023-08-21T12:04:06;37.9;36
79467;SHT30;68933;49.726;9.226;2023-08-21T12:06:14;37.9;36
79467;SHT30;68933;49.726;9.226;2023-08-21T12:08:27;37.9;36
79467;SHT30;68933;49.726;9.226;2023-08-21T12:10:40;37.9;36
79467;SHT30;68933;49.726;9.226;2023-08-21T12:12:54;37.9;36
79467;SHT30;68933;49.726;9.226;2023-08-21T12:15:07;37.9;36
79467;SHT30;68933;49.726;9.226;2023-08-21T12:17:19;38.7;33
79467;SHT30;68933;49.726;9.226;2023-08-21T12:19:32;38.7;33
79467;SHT30;68933;49.726;9.226;2023-08-21T12:21:45;38.8;33
79467;SHT30;68933;49.726;9.226;2023-08-21T12:23:58;38.8;33
79467;SHT30;68933;49.726;9.226;2023-08-21T12:26:11;38.8;33
79467;SHT30;68933;49.726;9.226;2023-08-21T12:28:24;38.9;33
79467;SHT30;68933;49.726;9.226;2023-08-21T12:30:37;38.9;33
79467;SHT30;68933;49.726;9.226;2023-08-21T12:32:50;39;33
79467;SHT30;68933;49.726;9.226;2023-08-21T12:35:04;39;33
79467;SHT30;68933;49.726;9.226;2023-08-21T12:37:16;39;33
79467;SHT30;68933;49.726;9.226;2023-08-21T12:39:29;39.1;32
79467;SHT30;68933;49.726;9.226;2023-08-21T12:41:42;39.1;32
79467;SHT30;68933;49.726;9.226;2023-08-21T12:43:55;39.1;31
79467;SHT30;68933;49.726;9.226;2023-08-21T12:46:09;39.1;31
79467;SHT30;68933;49.726;9.226;2023-08-21T12:48:21;39.1;31
79467;SHT30;68933;49.726;9.226;2023-08-21T12:50:34;39.1;31
79467;SHT30;68933;49.726;9.226;2023-08-21T12:52:47;39.1;31
79467;SHT30;68933;49.726;9.226;2023-08-21T12:55:00;39.3;32
79467;SHT30;68933;49.726;9.226;2023-08-21T12:57:13;39.3;32
79467;SHT30;68933;49.726;9.226;2023-08-21T12:59:26;39.3;32
79467;SHT30;68933;49.726;9.226;2023-08-21T13:01:40;39.3;32
79467;SHT30;68933;49.726;9.226;2023-08-21T13:03:52;39.3;32
79467;SHT30;68933;49.726;9.226;2023-08-21T13:06:05;39.3;32
79467;SHT30;68933;49.726;9.226;2023-08-21T13:08:18;39.3;32
79467;SHT30;68933;49.726;9.226;2023-08-21T13:10:31;39.3;32
79467;SHT30;68933;49.726;9.226;2023-08-21T13:12:44;38.4;33
79467;SHT30;68933;49.726;9.226;2023-08-21T13:14:58;38.4;33
79467;SHT30;68933;49.726;9.226;2023-08-21T13:17:11;38.1;33
79467;SHT30;68933;49.726;9.226;2023-08-21T13:19:23;38.1;33
79467;SHT30;68933;49.726;9.226;2023-08-21T13:21:36;37.8;33
79467;SHT30;68933;49.726;9.226;2023-08-21T13:23:49;37.8;33
79467;SHT30;68933;49.726;9.226;2023-08-21T13:26:02;37.7;35
79467;SHT30;68933;49.726;9.226;2023-08-21T13:28:15;37.7;35
79467;SHT30;68933;49.726;9.226;2023-08-21T13:30:29;37.7;35
79467;SHT30;68933;49.726;9.226;2023-08-21T13:32:42;37.7;35
79467;SHT30;68933;49.726;9.226;2023-08-21T13:34:54;37.7;35
79467;SHT30;68933;49.726;9.226;2023-08-21T13:37:07;37.9;35
79467;SHT30;68933;49.726;9.226;2023-08-21T13:39:20;37.9;35
79467;SHT30;68933;49.726;9.226;2023-08-21T13:41:33;38.1;33
79467;SHT30;68933;49.726;9.226;2023-08-21T13:43:46;38.1;33
79467;SHT30;68933;49.726;9.226;2023-08-21T13:46:00;38.6;33
79467;SHT30;68933;49.726;9.226;2023-08-21T13:48:13;38.6;33
79467;SHT30;68933;49.726;9.226;2023-08-21T13:50:25;38.8;32
79467;SHT30;68933;49.726;9.226;2023-08-21T13:52:38;38.8;32
79467;SHT30;68933;49.726;9.226;2023-08-21T13:54:51;38.8;32
79467;SHT30;68933;49.726;9.226;2023-08-21T13:57:04;38.8;33
79467;SHT30;68933;49.726;9.226;2023-08-21T13:59:17;38.8;33
79467;SHT30;68933;49.726;9.226;2023-08-21T14:01:30;38.5;32
79467;SHT30;68933;49.726;9.226;2023-08-21T14:03:44;38.5;32
79467;SHT30;68933;49.726;9.226;2023-08-21T14:05:56;38.2;32
79467;SHT30;68933;49.726;9.226;2023-08-21T14:08:09;38.2;32
79467;SHT30;68933;49.726;9.226;2023-08-21T14:10:23;37.6;33
79467;SHT30;68933;49.726;9.226;2023-08-21T14:12:35;37.6;33
79467;SHT30;68933;49.726;9.226;2023-08-21T14:14:48;37.6;33
79467;SHT30;68933;49.726;9.226;2023-08-21T14:17:02;37.5;35
79467;SHT30;68933;49.726;9.226;2023-08-21T14:19:14;37.5;35
79467;SHT30;68933;49.726;9.226;2023-08-21T14:21:27;37.5;35
79467;SHT30;68933;49.726;9.226;2023-08-21T14:23:40;37.5;35
79467;SHT30;68933;49.726;9.226;2023-08-21T14:25:53;37.5;35
79467;SHT30;68933;49.726;9.226;2023-08-21T14:28:06;37.6;35
79467;SHT30;68933;49.726;9.226;2023-08-21T14:30:20;37.6;35
79467;SHT30;68933;49.726;9.226;2023-08-21T14:32:32;37.5;35
79467;SHT30;68933;49.726;9.226;2023-08-21T14:34:45;37.5;35
79467;SHT30;68933;49.726;9.226;2023-08-21T14:36:58;37.5;35
79467;SHT30;68933;49.726;9.226;2023-08-21T14:39:11;37.7;33
79467;SHT30;68933;49.726;9.226;2023-08-21T14:41:24;37.7;33
79467;SHT30;68933;49.726;9.226;2023-08-21T14:43:37;37.4;33
79467;SHT30;68933;49.726;9.226;2023-08-21T14:45:50;37.4;33
79467;SHT30;68933;49.726;9.226;2023-08-21T14:48:04;37.2;35
79467;SHT30;68933;49.726;9.226;2023-08-21T14:50:17;37.2;35
79467;SHT30;68933;49.726;9.226;2023-08-21T14:52:29;37.2;35
79467;SHT30;68933;49.726;9.226;2023-08-21T14:54:42;37.3;35
79467;SHT30;68933;49.726;9.226;2023-08-21T14:56:55;37.3;35
79467;SHT30;68933;49.726;9.226;2023-08-21T14:59:08;38;33
79467;SHT30;68933;49.726;9.226;2023-08-21T15:01:21;38;33